createdAt,value
2023-01-18T00:00:40.181Z,6.05
2023-01-18T00:03:14.017Z,5.90
2023-01-18T00:05:41.858Z,6.68
2023-01-18T00:08:09.501Z,5.90
2023-01-18T00:10:36.358Z,6.90
2023-01-18T00:13:03.726Z,6.03
2023-01-18T00:15:34.806Z,5.35
2023-01-18T00:18:02.089Z,4.43
2023-01-18T00:20:30.046Z,5.63
2023-01-18T00:22:59.787Z,6.05
2023-01-18T00:25:26.499Z,6.05
2023-01-18T00:27:56.208Z,6.22
2023-01-18T00:30:25.747Z,5.40
2023-01-18T00:32:57.651Z,5.75
2023-01-18T00:35:25.738Z,4.80
2023-01-18T00:37:53.287Z,5.53
2023-01-18T00:40:21.695Z,5.15
2023-01-18T00:43:06.844Z,6.93
2023-01-18T00:45:33.441Z,6.20
2023-01-18T00:47:59.990Z,5.47
2023-01-18T00:50:26.525Z,5.45
2023-01-18T00:52:56.926Z,5.32
2023-01-18T00:55:23.970Z,5.40
2023-01-18T00:57:50.426Z,5.80
2023-01-18T01:00:18.953Z,5.78
2023-01-18T01:02:45.549Z,5.53
2023-01-18T01:05:36.184Z,5.78
2023-01-18T01:08:03.657Z,6.05
2023-01-18T01:10:30.192Z,5.68
2023-01-18T01:13:15.049Z,5.53
2023-01-18T01:15:59.838Z,5.20
2023-01-18T01:18:44.800Z,5.68
2023-01-18T01:21:29.725Z,5.95
2023-01-18T01:24:14.605Z,6.13
2023-01-18T01:26:41.121Z,5.50
2023-01-18T01:29:07.590Z,5.68
2023-01-18T01:31:34.135Z,6.13
2023-01-18T01:34:00.605Z,5.40
2023-01-18T01:36:28.328Z,4.68
2023-01-18T01:38:55.640Z,4.97
2023-01-18T01:41:31.571Z,5.10
2023-01-18T01:44:19.401Z,6.40
2023-01-18T01:46:50.715Z,6.47
2023-01-18T01:49:23.131Z,6.15
2023-01-18T01:52:00.587Z,5.38
2023-01-18T01:54:32.049Z,4.97
2023-01-18T01:57:06.712Z,5.50
2023-01-18T01:59:37.746Z,5.13
2023-01-18T02:02:05.063Z,6.28
2023-01-18T02:04:33.228Z,5.47
2023-01-18T02:06:59.705Z,4.90
2023-01-18T02:09:26.239Z,4.82
2023-01-18T02:11:54.922Z,4.75
2023-01-18T02:14:26.313Z,5.53
2023-01-18T02:17:13.236Z,4.93
2023-01-18T02:19:58.443Z,5.95
2023-01-18T02:22:44.498Z,6.78
2023-01-18T02:25:26.914Z,6.50
2023-01-18T02:28:14.292Z,6.22
2023-01-18T02:31:09.672Z,6.85
2023-01-18T02:33:42.885Z,6.57
2023-01-18T02:36:20.790Z,6.68
2023-01-18T02:38:52.293Z,5.75
2023-01-18T02:42:21.030Z,5.75
2023-01-18T02:45:06.156Z,6.22
2023-01-18T02:47:33.829Z,6.30
2023-01-18T02:50:00.275Z,6.68
2023-01-18T02:52:47.224Z,6.35
2023-01-18T02:55:24.972Z,6.47
2023-01-18T02:57:56.417Z,6.28
2023-01-18T03:00:24.254Z,6.95
2023-01-18T03:02:52.505Z,6.75
2023-01-18T03:05:20.505Z,6.18
2023-01-18T03:08:09.426Z,6.78
2023-01-18T03:10:47.574Z,6.13
2023-01-18T03:13:28.356Z,6.80
2023-01-18T03:16:08.596Z,6.10
2023-01-18T03:19:00.031Z,6.60
2023-01-18T03:21:51.304Z,5.85
2023-01-18T03:24:19.607Z,6.53
2023-01-18T03:26:52.974Z,5.88
2023-01-18T03:29:39.572Z,6.28
2023-01-18T03:32:33.478Z,6.00
2023-01-18T03:35:11.820Z,6.38
2023-01-18T03:37:45.019Z,6.68
2023-01-18T03:40:20.959Z,6.65
2023-01-18T03:42:57.375Z,7.20
2023-01-18T03:45:29.783Z,7.75
2023-01-18T03:47:56.327Z,7.43
2023-01-18T03:50:28.049Z,7.45
2023-01-18T03:55:41.046Z,6.22
2023-01-18T03:58:10.847Z,7.18
2023-01-18T04:00:39.078Z,6.93
2023-01-18T04:03:06.157Z,6.90
2023-01-18T04:05:33.962Z,7.20
2023-01-18T04:08:00.366Z,6.65
2023-01-18T04:10:26.949Z,6.80
2023-01-18T04:12:53.561Z,6.95
2023-01-18T04:15:20.383Z,6.43
2023-01-18T04:17:49.624Z,6.22
2023-01-18T04:20:16.303Z,6.93
2023-01-18T04:22:42.738Z,6.43
2023-01-18T04:25:09.487Z,5.57
2023-01-18T04:27:35.969Z,6.20
2023-01-18T04:30:02.576Z,6.25
2023-01-18T04:32:29.102Z,6.13
2023-01-18T04:34:55.585Z,6.35
2023-01-18T04:37:30.207Z,6.55
2023-01-18T04:39:57.521Z,4.70
2023-01-18T04:42:25.544Z,4.97
2023-01-18T04:44:52.906Z,4.30
2023-01-18T04:47:19.372Z,4.90
2023-01-18T04:49:45.798Z,4.60
2023-01-18T04:52:12.322Z,4.53
2023-01-18T04:54:38.768Z,4.03
2023-01-18T04:57:05.287Z,4.95
2023-01-18T04:59:31.780Z,4.32
2023-01-18T05:01:58.309Z,4.53
2023-01-18T05:04:24.856Z,4.65
2023-01-18T05:06:51.490Z,4.43
2023-01-18T05:09:18.173Z,3.72
2023-01-18T05:11:44.625Z,4.05
2023-01-18T05:14:11.038Z,4.00
2023-01-18T05:16:37.567Z,3.67
2023-01-18T05:19:04.285Z,3.72
2023-01-18T05:21:30.767Z,4.32
2023-01-18T05:23:57.216Z,4.05
2023-01-18T05:26:24.507Z,5.40
2023-01-18T05:28:56.074Z,4.47
2023-01-18T05:31:22.626Z,6.13
2023-01-18T05:33:49.225Z,5.18
2023-01-18T05:36:15.923Z,5.35
2023-01-18T05:38:42.536Z,4.90
2023-01-18T05:41:09.110Z,4.20
2023-01-18T05:43:35.831Z,4.80
2023-01-18T05:46:02.483Z,4.53
2023-01-18T05:48:29.037Z,4.82
2023-01-18T05:50:55.659Z,5.00
2023-01-18T05:53:22.960Z,5.28
2023-01-18T05:55:57.412Z,5.72
2023-01-18T05:58:25.042Z,5.47
2023-01-18T06:00:51.904Z,5.60
2023-01-18T06:03:18.473Z,6.13
2023-01-18T06:05:46.123Z,5.07
2023-01-18T06:08:12.636Z,5.43
2023-01-18T06:10:39.669Z,10.48
2023-01-18T06:13:06.777Z,5.90
2023-01-18T06:15:33.896Z,5.32
2023-01-18T06:18:00.469Z,6.25
2023-01-18T06:20:30.308Z,5.93
2023-01-18T06:22:58.117Z,8.15
2023-01-18T06:25:25.110Z,6.07
2023-01-18T06:27:51.834Z,6.43
2023-01-18T06:30:18.756Z,7.05
2023-01-18T06:32:45.246Z,6.85
2023-01-18T06:35:11.705Z,8.07
2023-01-18T06:37:38.224Z,6.78
2023-01-18T06:40:05.324Z,7.43
2023-01-18T06:42:31.844Z,8.60
2023-01-18T06:44:59.632Z,5.53
2023-01-18T06:47:26.088Z,6.32
2023-01-18T06:49:52.552Z,6.50
2023-01-18T06:52:19.043Z,8.30
2023-01-18T06:54:45.557Z,6.05
2023-01-18T06:57:12.414Z,7.72
2023-01-18T06:59:40.219Z,6.07
2023-01-18T07:02:07.599Z,5.82
2023-01-18T07:04:37.811Z,5.93
2023-01-18T07:07:04.225Z,10.23
2023-01-18T07:09:30.690Z,6.90
2023-01-18T07:11:57.136Z,9.15
2023-01-18T07:14:23.581Z,10.90
2023-01-18T07:16:50.136Z,8.23
2023-01-18T07:19:16.928Z,6.20
2023-01-18T07:21:43.436Z,6.88
2023-01-18T07:24:09.880Z,7.05
2023-01-18T07:26:36.433Z,7.20
2023-01-18T07:29:03.125Z,7.50
2023-01-18T07:31:30.176Z,8.80
2023-01-18T07:33:56.843Z,7.35
2023-01-18T07:36:23.300Z,8.05
2023-01-18T07:38:49.808Z,7.97
2023-01-18T07:41:17.215Z,8.02
2023-01-18T07:43:44.820Z,8.02
2023-01-18T07:46:15.769Z,7.97
2023-01-18T07:48:42.653Z,7.32
2023-01-18T07:51:10.914Z,8.77
2023-01-18T07:53:38.353Z,7.15
2023-01-18T07:56:12.520Z,7.28
2023-01-18T07:58:39.145Z,7.10
2023-01-18T08:01:09.236Z,7.78
2023-01-18T08:03:36.949Z,7.30
2023-01-18T08:06:06.125Z,6.50
2023-01-18T08:08:33.197Z,6.20
2023-01-18T08:11:01.252Z,6.47
2023-01-18T08:13:28.236Z,5.82
2023-01-18T08:15:55.964Z,5.95
2023-01-18T08:18:23.587Z,6.28
2023-01-18T08:20:50.102Z,7.35
2023-01-18T08:23:17.243Z,8.50
2023-01-18T08:25:44.810Z,6.55
2023-01-18T08:28:11.566Z,6.63
2023-01-18T08:30:41.720Z,5.80
2023-01-18T08:33:09.032Z,6.93
2023-01-18T08:35:43.934Z,6.68
2023-01-18T08:38:11.966Z,6.07
2023-01-18T08:40:38.777Z,5.43
2023-01-18T08:43:05.963Z,5.25
2023-01-18T08:45:34.825Z,5.38
2023-01-18T08:48:04.181Z,5.38
2023-01-18T08:50:32.337Z,4.53
2023-01-18T08:53:00.152Z,5.65
2023-01-18T08:55:29.690Z,5.82
2023-01-18T08:57:58.933Z,6.32
2023-01-18T09:00:30.044Z,5.68
2023-01-18T09:02:57.786Z,4.90
2023-01-18T09:05:26.390Z,5.95
2023-01-18T09:07:54.375Z,5.05
2023-01-18T09:10:21.486Z,5.15
2023-01-18T09:12:48.535Z,5.45
2023-01-18T09:15:15.137Z,5.10
2023-01-18T09:17:41.543Z,5.72
2023-01-18T09:20:09.770Z,5.88
2023-01-18T09:22:36.761Z,5.80
2023-01-18T09:25:03.669Z,5.30
2023-01-18T09:27:30.125Z,4.65
2023-01-18T09:29:56.994Z,5.18
2023-01-18T09:32:25.380Z,5.50
2023-01-18T09:34:52.329Z,4.78
2023-01-18T09:37:19.151Z,4.95
2023-01-18T09:39:51.912Z,4.63
2023-01-18T09:42:25.477Z,3.70
2023-01-18T09:45:00.614Z,4.40
2023-01-18T09:47:46.190Z,4.88
2023-01-18T09:50:13.196Z,5.28
2023-01-18T09:53:24.815Z,4.18
2023-01-18T09:55:59.448Z,5.30
2023-01-18T09:58:57.086Z,5.40
2023-01-18T10:01:27.907Z,5.78
2023-01-18T10:04:07.173Z,6.10
2023-01-18T10:06:47.254Z,5.80
2023-01-18T10:09:24.201Z,5.45
2023-01-18T10:11:59.711Z,5.72
2023-01-18T10:14:53.053Z,5.15
2023-01-18T10:17:28.935Z,5.68
2023-01-18T10:19:55.426Z,5.22
2023-01-18T10:22:28.234Z,4.95
2023-01-18T10:25:06.315Z,5.05
2023-01-18T10:27:57.432Z,4.93
2023-01-18T10:30:45.707Z,5.63
2023-01-18T10:33:28.507Z,4.57
2023-01-18T10:36:11.698Z,5.60
2023-01-18T10:38:40.860Z,5.38
2023-01-18T10:41:17.438Z,5.25
2023-01-18T10:43:44.531Z,5.03
2023-01-18T10:46:16.643Z,4.28
2023-01-18T10:48:46.551Z,5.43
2023-01-18T10:51:25.719Z,5.00
2023-01-18T10:53:52.195Z,5.15
2023-01-18T10:56:24.126Z,4.57
2023-01-18T10:58:50.528Z,3.72
2023-01-18T11:01:29.788Z,5.28
2023-01-18T11:04:05.816Z,5.82
2023-01-18T11:06:53.400Z,4.38
2023-01-18T11:09:55.626Z,4.32
2023-01-18T11:12:34.762Z,4.38
2023-01-18T11:15:13.495Z,4.38
2023-01-18T11:17:58.555Z,4.53
2023-01-18T11:20:46.202Z,4.80
2023-01-18T11:23:25.445Z,5.38
2023-01-18T11:26:01.710Z,4.50
2023-01-18T11:29:01.987Z,4.60
2023-01-18T11:31:45.584Z,3.85
2023-01-18T11:34:43.519Z,3.58
2023-01-18T11:37:29.704Z,3.97
2023-01-18T11:39:57.010Z,4.22
2023-01-18T11:42:30.331Z,3.90
2023-01-18T11:45:20.357Z,4.38
2023-01-18T11:48:14.050Z,3.92
2023-01-18T11:50:45.611Z,4.40
2023-01-18T11:53:23.979Z,3.72
2023-01-18T11:56:05.769Z,5.22
2023-01-18T11:58:35.313Z,4.80
2023-01-18T12:01:07.461Z,4.53
2023-01-18T12:03:47.624Z,4.55
2023-01-18T12:06:54.361Z,4.30
2023-01-18T12:09:33.426Z,4.88
2023-01-18T12:12:19.292Z,4.38
2023-01-18T12:15:10.357Z,5.25
2023-01-18T12:17:58.654Z,4.43
2023-01-18T12:20:55.501Z,4.38
2023-01-18T12:23:43.804Z,4.68
2023-01-18T12:26:39.602Z,4.10
2023-01-18T12:29:11.932Z,5.30
2023-01-18T12:32:06.549Z,4.80
2023-01-18T12:35:24.021Z,5.30
2023-01-18T12:38:13.446Z,5.43
2023-01-18T12:40:51.054Z,4.32
2023-01-18T12:43:48.427Z,5.20
2023-01-18T12:46:22.742Z,5.15
2023-01-18T12:49:08.267Z,4.43
2023-01-18T12:51:36.560Z,5.18
2023-01-18T12:54:20.717Z,4.00
2023-01-18T12:56:53.057Z,6.25
2023-01-18T12:59:25.513Z,5.10
2023-01-18T13:01:57.336Z,5.32
2023-01-18T13:04:29.997Z,4.93
2023-01-18T13:07:07.058Z,4.45
2023-01-18T13:09:40.369Z,6.18
2023-01-18T13:12:07.267Z,7.22
2023-01-18T13:14:39.259Z,9.30
2023-01-18T13:17:12.989Z,6.68
2023-01-18T13:19:43.654Z,5.90
2023-01-18T13:22:39.174Z,5.32
2023-01-18T13:25:43.846Z,5.38
2023-01-18T13:28:24.933Z,4.28
2023-01-18T13:31:04.703Z,4.10
2023-01-18T13:33:34.535Z,6.15
2023-01-18T13:36:14.163Z,4.60
2023-01-18T13:39:06.892Z,4.57
2023-01-18T13:41:33.399Z,4.35
2023-01-18T13:44:26.774Z,5.10
2023-01-18T13:46:57.580Z,6.63
2023-01-18T13:49:36.710Z,7.43
2023-01-18T13:52:33.860Z,5.00
2023-01-18T13:55:03.656Z,5.70
2023-01-18T13:57:32.530Z,6.28
2023-01-18T14:00:00.044Z,8.70
2023-01-18T14:02:34.173Z,5.00
2023-01-18T14:05:06.313Z,4.75
2023-01-18T14:07:43.504Z,5.15
2023-01-18T14:10:27.234Z,3.65
2023-01-18T14:12:56.539Z,7.15
2023-01-18T14:15:39.695Z,6.15
2023-01-18T14:18:23.207Z,4.50
2023-01-18T14:20:59.463Z,6.20
2023-01-18T14:23:37.790Z,4.63
2023-01-18T14:26:10.533Z,4.90
2023-01-18T14:28:57.209Z,5.07
2023-01-18T14:31:30.594Z,4.45
2023-01-18T14:33:57.199Z,4.18
2023-01-18T14:36:26.713Z,8.77
2023-01-18T14:39:14.178Z,6.35
2023-01-18T14:41:44.292Z,4.80
2023-01-18T14:44:57.305Z,4.57
2023-01-18T14:47:29.920Z,4.15
2023-01-18T14:49:56.584Z,4.95
2023-01-18T14:52:30.163Z,5.35
2023-01-18T14:54:56.979Z,4.57
2023-01-18T14:57:24.303Z,5.38
2023-01-18T14:59:53.661Z,3.83
2023-01-18T15:02:25.778Z,4.20
2023-01-18T15:05:12.524Z,10.07
2023-01-18T15:07:40.688Z,4.20
2023-01-18T15:10:08.522Z,4.00
2023-01-18T15:12:36.115Z,4.57
2023-01-18T15:15:12.899Z,3.63
2023-01-18T15:17:39.437Z,3.15
2023-01-18T15:20:11.795Z,3.80
2023-01-18T15:22:40.460Z,3.85
2023-01-18T15:25:27.384Z,3.33
2023-01-18T15:27:54.498Z,3.88
2023-01-18T15:30:23.632Z,4.30
2023-01-18T15:32:55.293Z,3.50
2023-01-18T15:37:50.235Z,3.67
2023-01-18T15:40:16.609Z,3.30
2023-01-18T15:42:44.836Z,3.28
2023-01-18T15:45:24.487Z,3.10
2023-01-18T15:47:55.820Z,3.22
2023-01-18T15:50:26.087Z,3.55
2023-01-18T15:53:13.954Z,2.80
2023-01-18T15:55:58.476Z,3.03
2023-01-18T15:58:42.636Z,3.28
2023-01-18T16:01:27.891Z,3.90
2023-01-18T16:04:00.552Z,3.30
2023-01-18T16:06:29.581Z,2.45
2023-01-18T16:08:56.712Z,3.38
2023-01-18T16:11:43.268Z,3.33
2023-01-18T16:14:27.803Z,3.80
2023-01-18T16:17:14.888Z,3.42
2023-01-18T16:19:45.997Z,2.67
2023-01-18T16:22:21.533Z,3.00
2023-01-18T16:24:51.937Z,7.45
2023-01-18T16:27:21.242Z,3.40
2023-01-18T16:29:59.663Z,3.05
2023-01-18T16:32:29.030Z,3.13
2023-01-18T16:35:00.577Z,3.40
2023-01-18T16:37:27.551Z,2.92
2023-01-18T16:39:55.246Z,3.53
2023-01-18T16:42:29.537Z,4.35
2023-01-18T16:45:03.982Z,6.32
2023-01-18T16:47:30.410Z,6.18
2023-01-18T16:49:59.133Z,5.72
2023-01-18T16:52:25.810Z,6.80
2023-01-18T16:54:52.354Z,6.57
2023-01-18T16:57:23.279Z,5.43
2023-01-18T16:59:50.588Z,7.32
2023-01-18T17:02:17.180Z,4.95
2023-01-18T17:04:45.352Z,6.75
2023-01-18T17:07:12.497Z,10.43
2023-01-18T17:09:47.900Z,5.60
2023-01-18T17:12:15.066Z,5.68
2023-01-18T17:14:41.524Z,5.03
2023-01-18T17:17:09.580Z,4.05
2023-01-18T17:19:37.649Z,5.00
2023-01-18T17:22:04.395Z,4.28
2023-01-18T17:24:30.943Z,4.15
2023-01-18T17:26:57.438Z,4.72
2023-01-18T17:29:23.919Z,4.65
2023-01-18T17:31:52.838Z,4.95
2023-01-18T17:34:28.119Z,4.68
2023-01-18T17:36:55.852Z,4.65
2023-01-18T17:39:22.468Z,4.30
2023-01-18T17:41:49.448Z,5.65
2023-01-18T17:44:16.036Z,4.82
2023-01-18T17:46:42.556Z,4.90
2023-01-18T17:49:09.384Z,5.10
2023-01-18T17:51:36.539Z,4.63
2023-01-18T17:54:03.676Z,5.82
2023-01-18T17:56:32.813Z,5.63
2023-01-18T17:58:59.270Z,5.38
2023-01-18T18:01:25.782Z,5.85
2023-01-18T18:03:52.601Z,6.75
2023-01-18T18:06:30.346Z,6.63
2023-01-18T18:08:57.623Z,5.90
2023-01-18T18:11:24.670Z,6.40
2023-01-18T18:13:51.164Z,6.95
2023-01-18T18:16:18.907Z,6.15
2023-01-18T18:18:46.016Z,6.60
2023-01-18T18:21:12.564Z,6.90
2023-01-18T18:23:39.217Z,5.55
2023-01-18T18:26:06.035Z,5.65
2023-01-18T18:28:34.055Z,5.93
2023-01-18T18:31:01.092Z,5.43
2023-01-18T18:33:28.438Z,4.78
2023-01-18T18:35:55.345Z,4.78
2023-01-18T18:38:23.084Z,5.53
2023-01-18T18:40:50.984Z,5.15
2023-01-18T18:43:18.159Z,6.45
2023-01-18T18:45:45.711Z,5.50
2023-01-18T18:48:15.798Z,5.18
2023-01-18T18:50:42.273Z,6.22
2023-01-18T18:53:08.877Z,6.53
2023-01-18T18:55:35.369Z,6.65
2023-01-18T18:58:02.270Z,5.30
2023-01-18T19:00:31.850Z,6.95
2023-01-18T19:03:03.176Z,6.55
2023-01-18T19:05:30.655Z,7.47
2023-01-18T19:07:57.267Z,6.80
2023-01-18T19:10:27.358Z,7.35
2023-01-18T19:12:54.663Z,6.95
2023-01-18T19:15:21.635Z,5.82
2023-01-18T19:17:52.379Z,6.65
2023-01-18T19:20:19.825Z,6.67
2023-01-18T19:22:50.354Z,6.68
2023-01-18T19:25:17.005Z,6.97
2023-01-18T19:27:43.805Z,6.13
2023-01-18T19:30:18.072Z,6.20
2023-01-18T19:32:51.241Z,6.03
2023-01-18T19:35:19.159Z,6.03
2023-01-18T19:37:46.882Z,6.00
2023-01-18T19:40:15.061Z,6.38
2023-01-18T19:42:41.541Z,6.25
2023-01-18T19:45:11.451Z,6.05
2023-01-18T19:47:41.270Z,6.22
2023-01-18T19:50:08.323Z,6.15
2023-01-18T19:52:34.859Z,6.30
2023-01-18T19:55:03.003Z,6.57
2023-01-18T19:57:29.700Z,5.88
2023-01-18T19:59:57.038Z,6.55
2023-01-18T20:02:24.081Z,5.10
2023-01-18T20:04:51.922Z,5.80
2023-01-18T20:07:18.487Z,6.55
2023-01-18T20:09:45.381Z,6.00
2023-01-18T20:12:15.199Z,6.25
2023-01-18T20:14:42.561Z,5.50
2023-01-18T20:17:11.601Z,6.50
2023-01-18T20:19:38.024Z,5.93
2023-01-18T20:22:04.551Z,5.60
2023-01-18T20:24:31.006Z,7.45
2023-01-18T20:27:10.591Z,6.57
2023-01-18T20:29:41.287Z,6.00
2023-01-18T20:32:15.379Z,6.38
2023-01-18T20:34:44.547Z,7.07
2023-01-18T20:37:12.514Z,9.65
2023-01-18T20:39:39.064Z,7.55
2023-01-18T20:42:05.629Z,8.45
2023-01-18T20:44:32.310Z,8.10
2023-01-18T20:46:58.724Z,7.00
2023-01-18T20:49:37.300Z,9.00
2023-01-18T20:52:05.793Z,7.53
2023-01-18T20:54:34.191Z,7.35
2023-01-18T20:57:01.412Z,7.40
2023-01-18T20:59:27.914Z,6.72
2023-01-18T21:01:54.612Z,8.60
2023-01-18T21:04:21.191Z,7.18
2023-01-18T21:06:49.678Z,8.20
2023-01-18T21:09:16.663Z,10.25
2023-01-18T21:11:43.501Z,9.30
2023-01-18T21:14:09.975Z,7.93
2023-01-18T21:16:36.676Z,8.38
2023-01-18T21:19:03.301Z,8.63
2023-01-18T21:21:31.717Z,8.68
2023-01-18T21:23:59.112Z,9.98
2023-01-18T21:26:26.071Z,7.38
2023-01-18T21:28:52.965Z,8.60
2023-01-18T21:31:19.722Z,7.22
2023-01-18T21:33:46.219Z,7.70
2023-01-18T21:36:15.442Z,8.15
2023-01-18T21:38:42.146Z,7.85
2023-01-18T21:41:27.470Z,7.28
2023-01-18T21:44:12.825Z,8.13
2023-01-18T21:46:48.072Z,7.85
2023-01-18T21:49:47.157Z,7.20
2023-01-18T21:52:38.267Z,7.20
2023-01-18T21:55:04.996Z,7.60
2023-01-18T21:57:31.456Z,7.40
2023-01-18T21:59:57.865Z,6.75
2023-01-18T22:02:24.453Z,7.72
2023-01-18T22:04:56.615Z,6.57
2023-01-18T22:07:23.136Z,6.93
2023-01-18T22:10:03.612Z,7.20
2023-01-18T22:15:01.418Z,7.72
2023-01-18T22:17:27.926Z,7.43
2023-01-18T22:19:54.496Z,7.95
2023-01-18T22:22:20.985Z,7.82
2023-01-18T22:24:47.398Z,8.63
2023-01-18T22:27:13.875Z,9.18
2023-01-18T22:29:40.336Z,8.30
2023-01-18T22:32:06.880Z,8.93
2023-01-18T22:34:33.289Z,9.88
2023-01-18T22:36:59.784Z,8.00
2023-01-18T22:39:26.278Z,8.07
2023-01-18T22:41:52.797Z,8.68
2023-01-18T22:44:19.228Z,7.75
2023-01-18T22:46:46.375Z,8.27
2023-01-18T22:49:12.837Z,8.93
2023-01-18T22:51:39.572Z,8.10
2023-01-18T22:54:06.274Z,8.07
2023-01-18T22:56:34.305Z,9.15
2023-01-18T22:59:00.749Z,7.93
2023-01-18T23:01:30.743Z,8.70
2023-01-18T23:03:59.867Z,8.60
2023-01-18T23:06:28.184Z,7.40
2023-01-18T23:08:55.878Z,7.78
2023-01-18T23:11:29.000Z,8.23
2023-01-18T23:14:16.037Z,9.05
2023-01-18T23:17:01.575Z,8.82
2023-01-18T23:19:29.627Z,8.05
2023-01-18T23:21:57.030Z,7.65
2023-01-18T23:24:23.852Z,8.30
2023-01-18T23:26:51.473Z,8.10
2023-01-18T23:29:18.786Z,7.25
2023-01-18T23:31:46.137Z,7.53
2023-01-18T23:34:12.692Z,9.90
2023-01-18T23:36:39.196Z,7.85
2023-01-18T23:39:24.400Z,7.63
2023-01-18T23:42:09.250Z,7.78
2023-01-18T23:44:54.378Z,7.78
2023-01-18T23:47:39.773Z,6.47
2023-01-18T23:50:25.120Z,6.75
2023-01-18T23:53:10.286Z,7.28
2023-01-18T23:55:36.821Z,6.25
2023-01-18T23:58:03.594Z,7.47
